sensor_id;sensor_type;location;lat;lon;timestamp;pressure;altitude;pressure_sealevel;temperature;humidity
50933;BME280;36921;49.006;9.292;2023-03-20T00:00:32;99074.91;;;8.36;100.00
50933;BME280;36921;49.006;9.292;2023-03-20T00:02:58;99075.91;;;8.35;100.00
50933;BME280;36921;49.006;9.292;2023-03-20T00:05:24;99061.75;;;8.33;100.00
50933;BME280;36921;49.006;9.292;2023-03-20T00:07:51;99050.50;;;8.29;100.00
50933;BME280;36921;49.006;9.292;2023-03-20T00:10:17;99064.66;;;8.31;100.00
50933;BME280;36921;49.006;9.292;2023-03-20T00:12:43;99059.72;;;8.35;100.00
50933;BME280;36921;49.006;9.292;2023-03-20T00:17:53;99060.91;;;8.32;100.00
50933;BME280;36921;49.006;9.292;2023-03-20T00:20:19;99061.41;;;8.36;100.00
50933;BME280;36921;49.006;9.292;2023-03-20T00:22:45;99040.09;;;8.26;100.00
50933;BME280;36921;49.006;9.292;2023-03-20T00:25:19;99060.53;;;8.44;100.00
50933;BME280;36921;49.006;9.292;2023-03-20T00:27:46;99061.53;;;8.43;100.00
50933;BME280;36921;49.006;9.292;2023-03-20T00:30:23;99058.72;;;8.36;100.00
50933;BME280;36921;49.006;9.292;2023-03-20T00:32:50;99068.00;;;8.33;100.00
50933;BME280;36921;49.006;9.292;2023-03-20T00:35:30;99051.06;;;8.25;100.00
50933;BME280;36921;49.006;9.292;2023-03-20T00:37:56;99047.75;;;8.15;100.00
50933;BME280;36921;49.006;9.292;2023-03-20T00:40:26;99043.03;;;8.17;100.00
50933;BME280;36921;49.006;9.292;2023-03-20T00:42:58;99054.13;;;8.22;100.00
50933;BME280;36921;49.006;9.292;2023-03-20T00:45:24;99077.91;;;8.41;100.00
50933;BME280;36921;49.006;9.292;2023-03-20T00:47:51;99051.53;;;8.28;100.00
50933;BME280;36921;49.006;9.292;2023-03-20T00:50:22;99063.69;;;8.47;100.00
50933;BME280;36921;49.006;9.292;2023-03-20T00:52:49;99039.72;;;8.29;100.00
50933;BME280;36921;49.006;9.292;2023-03-20T00:55:16;99068.81;;;8.57;100.00
50933;BME280;36921;49.006;9.292;2023-03-20T00:57:51;99037.47;;;8.41;100.00
50933;BME280;36921;49.006;9.292;2023-03-20T01:00:37;99061.28;;;8.52;100.00
50933;BME280;36921;49.006;9.292;2023-03-20T01:03:30;99060.53;;;8.44;100.00
50933;BME280;36921;49.006;9.292;2023-03-20T01:05:56;99059.88;;;8.42;100.00
50933;BME280;36921;49.006;9.292;2023-03-20T01:08:24;99053.66;;;8.33;100.00
50933;BME280;36921;49.006;9.292;2023-03-20T01:10:55;99066.69;;;8.29;100.00
50933;BME280;36921;49.006;9.292;2023-03-20T01:13:24;99045.66;;;8.25;100.00
50933;BME280;36921;49.006;9.292;2023-03-20T01:15:53;99066.88;;;8.28;100.00
50933;BME280;36921;49.006;9.292;2023-03-20T01:18:20;99057.63;;;8.22;100.00
50933;BME280;36921;49.006;9.292;2023-03-20T01:20:46;99047.44;;;8.18;100.00
50933;BME280;36921;49.006;9.292;2023-03-20T01:23:12;99061.28;;;8.29;100.00
50933;BME280;36921;49.006;9.292;2023-03-20T01:25:37;99075.44;;;8.31;100.00
50933;BME280;36921;49.006;9.292;2023-03-20T01:28:13;99062.03;;;8.23;100.00
50933;BME280;36921;49.006;9.292;2023-03-20T01:30:39;99051.25;;;8.23;100.00
50933;BME280;36921;49.006;9.292;2023-03-20T01:33:16;99065.84;;;8.29;100.00
50933;BME280;36921;49.006;9.292;2023-03-20T01:35:42;99056.50;;;8.17;100.00
50933;BME280;36921;49.006;9.292;2023-03-20T01:38:19;99075.31;;;8.25;100.00
50933;BME280;36921;49.006;9.292;2023-03-20T01:41:09;99071.97;;;8.23;100.00
50933;BME280;36921;49.006;9.292;2023-03-20T01:43:36;99076.50;;;8.22;100.00
50933;BME280;36921;49.006;9.292;2023-03-20T01:48:57;99079.03;;;8.24;100.00
50933;BME280;36921;49.006;9.292;2023-03-20T01:51:26;99080.00;;;8.31;100.00
50933;BME280;36921;49.006;9.292;2023-03-20T01:54:05;99076.63;;;8.29;100.00
50933;BME280;36921;49.006;9.292;2023-03-20T01:56:34;99054.19;;;8.13;100.00
50933;BME280;36921;49.006;9.292;2023-03-20T01:59:05;99066.00;;;8.12;100.00
50933;BME280;36921;49.006;9.292;2023-03-20T02:01:35;99000.06;;;7.62;100.00
50933;BME280;36921;49.006;9.292;2023-03-20T02:04:02;99037.94;;;7.84;100.00
50933;BME280;36921;49.006;9.292;2023-03-20T02:06:28;99084.19;;;8.10;100.00
50933;BME280;36921;49.006;9.292;2023-03-20T02:08:53;99087.19;;;8.16;100.00
50933;BME280;36921;49.006;9.292;2023-03-20T02:11:21;99092.09;;;8.12;100.00
50933;BME280;36921;49.006;9.292;2023-03-20T02:13:49;99098.97;;;8.15;100.00
50933;BME280;36921;49.006;9.292;2023-03-20T02:16:16;99099.63;;;8.17;100.00
50933;BME280;36921;49.006;9.292;2023-03-20T02:18:43;99101.97;;;8.20;100.00
50933;BME280;36921;49.006;9.292;2023-03-20T02:40:42;99111.97;;;8.11;100.00
50933;BME280;36921;49.006;9.292;2023-03-20T02:52:15;99104.72;;;8.11;100.00
50933;BME280;36921;49.006;9.292;2023-03-20T03:02:50;99094.38;;;8.00;100.00
50933;BME280;36921;49.006;9.292;2023-03-20T03:05:22;99105.16;;;8.00;100.00
50933;BME280;36921;49.006;9.292;2023-03-20T03:07:51;99104.50;;;7.98;100.00
50933;BME280;36921;49.006;9.292;2023-03-20T03:10:20;99098.09;;;7.99;100.00
50933;BME280;36921;49.006;9.292;2023-03-20T03:12:48;99116.78;;;8.01;100.00
50933;BME280;36921;49.006;9.292;2023-03-20T03:15:23;99113.25;;;8.00;100.00
50933;BME280;36921;49.006;9.292;2023-03-20T03:18:14;99116.91;;;8.07;100.00
50933;BME280;36921;49.006;9.292;2023-03-20T03:20:42;99116.63;;;8.17;100.00
50933;BME280;36921;49.006;9.292;2023-03-20T03:25:52;99125.63;;;8.09;100.00
50933;BME280;36921;49.006;9.292;2023-03-20T03:28:45;99111.50;;;8.07;100.00
50933;BME280;36921;49.006;9.292;2023-03-20T03:31:14;99123.13;;;8.08;100.00
50933;BME280;36921;49.006;9.292;2023-03-20T03:33:44;99117.78;;;8.00;100.00
50933;BME280;36921;49.006;9.292;2023-03-20T03:36:37;99126.84;;;8.07;100.00
50933;BME280;36921;49.006;9.292;2023-03-20T03:41:52;99124.91;;;8.16;100.00
50933;BME280;36921;49.006;9.292;2023-03-20T03:44:44;99120.72;;;8.13;100.00
50933;BME280;36921;49.006;9.292;2023-03-20T03:47:35;99128.81;;;8.13;100.00
50933;BME280;36921;49.006;9.292;2023-03-20T03:52:53;99129.34;;;8.08;100.00
50933;BME280;36921;49.006;9.292;2023-03-20T03:55:33;99116.53;;;8.10;100.00
50933;BME280;36921;49.006;9.292;2023-03-20T03:58:10;99125.63;;;8.09;100.00
50933;BME280;36921;49.006;9.292;2023-03-20T04:00:40;99118.19;;;8.11;100.00
50933;BME280;36921;49.006;9.292;2023-03-20T04:03:07;99127.97;;;8.12;100.00
50933;BME280;36921;49.006;9.292;2023-03-20T04:05:35;99130.38;;;8.07;100.00
50933;BME280;36921;49.006;9.292;2023-03-20T04:08:03;99132.03;;;8.08;100.00
50933;BME280;36921;49.006;9.292;2023-03-20T04:10:29;99129.34;;;8.08;100.00
50933;BME280;36921;49.006;9.292;2023-03-20T04:12:55;99129.34;;;8.08;100.00
50933;BME280;36921;49.006;9.292;2023-03-20T04:15:20;99124.16;;;8.07;100.00
50933;BME280;36921;49.006;9.292;2023-03-20T04:17:46;99126.19;;;8.05;100.00
50933;BME280;36921;49.006;9.292;2023-03-20T04:20:12;99132.41;;;8.05;100.00
50933;BME280;36921;49.006;9.292;2023-03-20T04:22:38;99120.50;;;8.00;100.00
50933;BME280;36921;49.006;9.292;2023-03-20T04:25:04;99127.75;;;7.99;100.00
50933;BME280;36921;49.006;9.292;2023-03-20T04:27:30;99127.75;;;7.99;100.00
50933;BME280;36921;49.006;9.292;2023-03-20T04:29:56;99123.84;;;8.02;100.00
50933;BME280;36921;49.006;9.292;2023-03-20T04:32:22;99120.97;;;8.03;100.00
50933;BME280;36921;49.006;9.292;2023-03-20T04:34:47;99120.59;;;8.06;100.00
50933;BME280;36921;49.006;9.292;2023-03-20T04:37:13;99123.28;;;8.06;100.00
50933;BME280;36921;49.006;9.292;2023-03-20T04:39:38;99124.78;;;8.09;100.00
50933;BME280;36921;49.006;9.292;2023-03-20T04:42:06;99114.84;;;8.09;100.00
50933;BME280;36921;49.006;9.292;2023-03-20T04:44:32;99115.28;;;8.21;100.00
50933;BME280;36921;49.006;9.292;2023-03-20T04:46:58;99114.59;;;8.19;100.00
50933;BME280;36921;49.006;9.292;2023-03-20T04:49:23;99116.63;;;8.17;100.00
50933;BME280;36921;49.006;9.292;2023-03-20T04:51:49;99120.19;;;8.18;100.00
50933;BME280;36921;49.006;9.292;2023-03-20T04:54:14;99115.16;;;8.15;100.00
50933;BME280;36921;49.006;9.292;2023-03-20T04:56:41;99121.19;;;8.17;100.00
50933;BME280;36921;49.006;9.292;2023-03-20T04:59:06;99120.00;;;8.19;100.00
50933;BME280;36921;49.006;9.292;2023-03-20T05:01:33;99127.91;;;8.21;100.00
50933;BME280;36921;49.006;9.292;2023-03-20T05:03:58;99131.91;;;8.25;100.00
50933;BME280;36921;49.006;9.292;2023-03-20T05:06:30;99136.47;;;8.24;100.00
50933;BME280;36921;49.006;9.292;2023-03-20T05:08:59;99134.59;;;8.25;100.00
50933;BME280;36921;49.006;9.292;2023-03-20T05:11:26;99137.31;;;8.25;100.00
50933;BME280;36921;49.006;9.292;2023-03-20T05:14:01;99150.78;;;8.25;100.00
50933;BME280;36921;49.006;9.292;2023-03-20T05:16:30;99133.69;;;8.18;100.00
50933;BME280;36921;49.006;9.292;2023-03-20T05:18:56;99137.97;;;8.27;100.00
50933;BME280;36921;49.006;9.292;2023-03-20T05:21:21;99149.47;;;8.21;100.00
50933;BME280;36921;49.006;9.292;2023-03-20T05:23:48;99152.19;;;8.21;100.00
50933;BME280;36921;49.006;9.292;2023-03-20T05:26:13;99149.34;;;8.14;100.00
50933;BME280;36921;49.006;9.292;2023-03-20T05:28:39;99153.75;;;8.15;100.00
50933;BME280;36921;49.006;9.292;2023-03-20T05:31:04;99139.09;;;8.09;100.00
50933;BME280;36921;49.006;9.292;2023-03-20T05:33:31;99148.69;;;8.12;100.00
50933;BME280;36921;49.006;9.292;2023-03-20T05:35:56;99140.31;;;8.07;100.00
50933;BME280;36921;49.006;9.292;2023-03-20T05:38:22;99142.00;;;8.08;100.00
50933;BME280;36921;49.006;9.292;2023-03-20T05:40:48;99151.22;;;8.13;100.00
50933;BME280;36921;49.006;9.292;2023-03-20T05:43:14;99157.63;;;8.12;100.00
50933;BME280;36921;49.006;9.292;2023-03-20T05:45:41;99159.13;;;8.15;100.00
50933;BME280;36921;49.006;9.292;2023-03-20T05:48:07;99149.47;;;8.21;100.00
50933;BME280;36921;49.006;9.292;2023-03-20T05:50:32;99156.84;;;8.27;100.00
50933;BME280;36921;49.006;9.292;2023-03-20T05:52:57;99150.78;;;8.25;100.00
50933;BME280;36921;49.006;9.292;2023-03-20T05:55:23;99151.28;;;8.28;100.00
50933;BME280;36921;49.006;9.292;2023-03-20T05:57:49;99156.78;;;8.35;100.00
50933;BME280;36921;49.006;9.292;2023-03-20T06:00:15;99156.94;;;8.42;100.00
50933;BME280;36921;49.006;9.292;2023-03-20T06:02:41;99161.28;;;8.43;100.00
50933;BME280;36921;49.006;9.292;2023-03-20T06:05:07;99164.28;;;8.48;100.00
50933;BME280;36921;49.006;9.292;2023-03-20T06:07:32;99167.47;;;8.51;100.00
50933;BME280;36921;49.006;9.292;2023-03-20T06:09:59;99162.34;;;8.56;100.00
50933;BME280;36921;49.006;9.292;2023-03-20T06:12:24;99164.72;;;8.60;100.00
50933;BME280;36921;49.006;9.292;2023-03-20T06:14:49;99163.97;;;8.66;100.00
50933;BME280;36921;49.006;9.292;2023-03-20T06:17:15;99159.03;;;8.69;100.00
50933;BME280;36921;49.006;9.292;2023-03-20T06:19:41;99169.97;;;8.76;100.00
50933;BME280;36921;49.006;9.292;2023-03-20T06:22:07;99169.22;;;8.82;100.00
50933;BME280;36921;49.006;9.292;2023-03-20T06:24:32;99158.53;;;8.89;100.00
50933;BME280;36921;49.006;9.292;2023-03-20T06:26:59;99164.84;;;8.96;100.00
50933;BME280;36921;49.006;9.292;2023-03-20T06:29:27;99159.56;;;9.03;100.00
50933;BME280;36921;49.006;9.292;2023-03-20T06:31:53;99150.94;;;9.07;100.00
50933;BME280;36921;49.006;9.292;2023-03-20T06:34:18;99143.78;;;9.14;100.00
50933;BME280;36921;49.006;9.292;2023-03-20T06:36:43;99143.41;;;9.17;100.00
50933;BME280;36921;49.006;9.292;2023-03-20T06:39:09;99146.56;;;9.21;100.00
50933;BME280;36921;49.006;9.292;2023-03-20T06:41:34;99146.66;;;9.28;100.00
50933;BME280;36921;49.006;9.292;2023-03-20T06:44:00;99149.81;;;9.31;100.00
50933;BME280;36921;49.006;9.292;2023-03-20T06:46:26;99139.78;;;9.25;100.00
50933;BME280;36921;49.006;9.292;2023-03-20T06:48:54;99151.69;;;9.31;100.00
50933;BME280;36921;49.006;9.292;2023-03-20T06:51:20;99145.44;;;9.30;100.00
50933;BME280;36921;49.006;9.292;2023-03-20T06:53:45;99147.00;;;9.39;100.00
50933;BME280;36921;49.006;9.292;2023-03-20T06:56:12;99148.22;;;9.52;100.00
50933;BME280;36921;49.006;9.292;2023-03-20T06:58:37;99146.97;;;9.69;100.00
50933;BME280;36921;49.006;9.292;2023-03-20T07:01:10;99150.03;;;9.66;100.00
50933;BME280;36921;49.006;9.292;2023-03-20T07:03:37;99148.81;;;9.83;100.00
50933;BME280;36921;49.006;9.292;2023-03-20T07:06:06;99149.88;;;10.04;100.00
50933;BME280;36921;49.006;9.292;2023-03-20T07:08:32;99149.25;;;10.45;100.00
50933;BME280;36921;49.006;9.292;2023-03-20T07:10:58;99157.72;;;10.57;100.00
50933;BME280;36921;49.006;9.292;2023-03-20T07:13:23;99162.72;;;10.60;100.00
50933;BME280;36921;49.006;9.292;2023-03-20T07:15:50;99175.94;;;10.48;100.00
50933;BME280;36921;49.006;9.292;2023-03-20T07:18:16;99166.72;;;10.42;100.00
50933;BME280;36921;49.006;9.292;2023-03-20T07:20:41;99179.63;;;10.25;100.00
50933;BME280;36921;49.006;9.292;2023-03-20T07:23:07;99176.97;;;10.10;100.00
50933;BME280;36921;49.006;9.292;2023-03-20T07:25:32;99178.41;;;10.06;100.00
50933;BME280;36921;49.006;9.292;2023-03-20T07:27:58;99184.78;;;9.84;100.00
50933;BME280;36921;49.006;9.292;2023-03-20T07:30:24;99186.38;;;9.78;100.00
50933;BME280;36921;49.006;9.292;2023-03-20T07:32:49;99187.94;;;9.87;100.00
50933;BME280;36921;49.006;9.292;2023-03-20T07:35:15;99178.16;;;9.86;100.00
50933;BME280;36921;49.006;9.292;2023-03-20T07:37:41;99186.31;;;10.08;100.00
50933;BME280;36921;49.006;9.292;2023-03-20T07:40:07;99183.47;;;10.31;100.00
50933;BME280;36921;49.006;9.292;2023-03-20T07:42:33;99177.78;;;10.47;100.00
50933;BME280;36921;49.006;9.292;2023-03-20T07:44:59;99172.88;;;10.79;100.00
50933;BME280;36921;49.006;9.292;2023-03-20T07:47:24;99170.88;;;10.88;100.00
50933;BME280;36921;49.006;9.292;2023-03-20T07:49:50;99163.09;;;11.06;100.00
50933;BME280;36921;49.006;9.292;2023-03-20T07:52:15;99163.25;;;10.98;100.00
50933;BME280;36921;49.006;9.292;2023-03-20T07:54:41;99161.06;;;11.15;100.00
50933;BME280;36921;49.006;9.292;2023-03-20T07:57:07;99170.06;;;11.57;100.00
50933;BME280;36921;49.006;9.292;2023-03-20T07:59:32;99165.69;;;12.04;100.00
50933;BME280;36921;49.006;9.292;2023-03-20T08:01:59;99173.91;;;12.31;100.00
50933;BME280;36921;49.006;9.292;2023-03-20T08:04:24;99148.47;;;12.85;100.00
50933;BME280;36921;49.006;9.292;2023-03-20T08:06:50;99165.41;;;12.60;100.00
50933;BME280;36921;49.006;9.292;2023-03-20T08:09:16;99169.38;;;12.58;100.00
50933;BME280;36921;49.006;9.292;2023-03-20T08:11:42;99159.75;;;12.55;100.00
50933;BME280;36921;49.006;9.292;2023-03-20T08:14:07;99173.94;;;12.37;100.00
50933;BME280;36921;49.006;9.292;2023-03-20T08:16:32;99162.38;;;12.09;100.00
50933;BME280;36921;49.006;9.292;2023-03-20T08:18:58;99175.81;;;11.82;100.00
50933;BME280;36921;49.006;9.292;2023-03-20T08:21:29;99157.88;;;11.39;100.00
50933;BME280;36921;49.006;9.292;2023-03-20T08:23:55;99172.50;;;10.82;100.00
50933;BME280;36921;49.006;9.292;2023-03-20T08:26:21;99173.84;;;10.93;100.00
50933;BME280;36921;49.006;9.292;2023-03-20T08:28:46;99174.69;;;11.00;100.00
50933;BME280;36921;49.006;9.292;2023-03-20T08:31:12;99159.28;;;11.29;100.00
50933;BME280;36921;49.006;9.292;2023-03-20T08:33:37;99178.41;;;11.55;100.00
50933;BME280;36921;49.006;9.292;2023-03-20T08:36:03;99163.16;;;11.48;100.00
50933;BME280;36921;49.006;9.292;2023-03-20T08:38:28;99178.31;;;11.42;100.00
50933;BME280;36921;49.006;9.292;2023-03-20T08:40:54;99177.59;;;11.61;100.00
50933;BME280;36921;49.006;9.292;2023-03-20T08:43:19;99167.22;;;11.72;100.00
50933;BME280;36921;49.006;9.292;2023-03-20T08:45:45;99173.00;;;12.03;100.00
50933;BME280;36921;49.006;9.292;2023-03-20T08:48:10;99151.41;;;12.57;100.00
50933;BME280;36921;49.006;9.292;2023-03-20T08:50:36;99158.03;;;13.47;100.00
50933;BME280;36921;49.006;9.292;2023-03-20T08:53:02;99163.38;;;13.74;100.00
50933;BME280;36921;49.006;9.292;2023-03-20T08:55:27;99166.34;;;14.49;100.00
50933;BME280;36921;49.006;9.292;2023-03-20T08:57:53;99152.75;;;15.98;100.00
50933;BME280;36921;49.006;9.292;2023-03-20T09:00:21;99156.00;;;16.07;100.00
50933;BME280;36921;49.006;9.292;2023-03-20T09:02:47;99158.28;;;16.10;100.00
50933;BME280;36921;49.006;9.292;2023-03-20T09:05:13;99170.94;;;16.04;100.00
50933;BME280;36921;49.006;9.292;2023-03-20T09:07:38;99157.91;;;16.06;100.00
50933;BME280;36921;49.006;9.292;2023-03-20T09:10:04;99173.06;;;16.02;100.00
50933;BME280;36921;49.006;9.292;2023-03-20T09:12:30;99158.50;;;15.53;100.00
50933;BME280;36921;49.006;9.292;2023-03-20T09:14:57;99161.56;;;15.01;100.00
50933;BME280;36921;49.006;9.292;2023-03-20T09:17:23;99177.16;;;14.87;100.00
50933;BME280;36921;49.006;9.292;2023-03-20T09:19:48;99128.78;;;13.88;100.00
50933;BME280;36921;49.006;9.292;2023-03-20T09:22:14;99170.22;;;13.90;100.00
50933;BME280;36921;49.006;9.292;2023-03-20T09:24:39;99178.47;;;13.63;100.00
50933;BME280;36921;49.006;9.292;2023-03-20T09:27:05;99173.72;;;13.25;100.00
50933;BME280;36921;49.006;9.292;2023-03-20T09:29:30;99125.91;;;12.31;100.00
50933;BME280;36921;49.006;9.292;2023-03-20T09:31:56;99145.16;;;12.63;100.00
50933;BME280;36921;49.006;9.292;2023-03-20T09:34:21;99180.00;;;13.12;100.00
50933;BME280;36921;49.006;9.292;2023-03-20T09:36:48;99167.28;;;12.86;100.00
50933;BME280;36921;49.006;9.292;2023-03-20T09:39:13;99172.28;;;13.03;100.00
50933;BME280;36921;49.006;9.292;2023-03-20T09:41:39;99176.25;;;13.07;100.00
50933;BME280;36921;49.006;9.292;2023-03-20T09:52:02;99186.00;;;13.68;100.00
50933;BME280;36921;49.006;9.292;2023-03-20T09:54:34;99188.25;;;13.84;100.00
50933;BME280;36921;49.006;9.292;2023-03-20T09:57:01;99188.72;;;13.54;100.00
50933;BME280;36921;49.006;9.292;2023-03-20T09:59:29;99177.69;;;13.36;100.00
50933;BME280;36921;49.006;9.292;2023-03-20T10:02:01;99198.13;;;13.65;100.00
50933;BME280;36921;49.006;9.292;2023-03-20T10:04:29;99170.38;;;13.43;100.00
50933;BME280;36921;49.006;9.292;2023-03-20T10:06:55;99166.00;;;13.42;100.00
50933;BME280;36921;49.006;9.292;2023-03-20T10:09:25;99191.22;;;14.59;100.00
50933;BME280;36921;49.006;9.292;2023-03-20T10:15:02;99186.47;;;16.22;100.00
50933;BME280;36921;49.006;9.292;2023-03-20T10:20:41;99184.69;;;17.47;100.00
50933;BME280;36921;49.006;9.292;2023-03-20T10:25:55;99182.94;;;15.85;100.00
50933;BME280;36921;49.006;9.292;2023-03-20T10:28:39;99188.97;;;14.81;100.00
50933;BME280;36921;49.006;9.292;2023-03-20T10:34:03;99196.78;;;13.88;100.00
50933;BME280;36921;49.006;9.292;2023-03-20T10:39:26;99184.25;;;13.87;100.00
50933;BME280;36921;49.006;9.292;2023-03-20T10:41:55;99182.28;;;14.07;100.00
50933;BME280;36921;49.006;9.292;2023-03-20T10:44:46;99183.41;;;14.31;100.00
50933;BME280;36921;49.006;9.292;2023-03-20T10:47:15;99186.22;;;14.50;100.00
50933;BME280;36921;49.006;9.292;2023-03-20T10:49:51;99163.38;;;14.51;100.00
50933;BME280;36921;49.006;9.292;2023-03-20T10:52:30;99179.94;;;14.56;100.00
50933;BME280;36921;49.006;9.292;2023-03-20T10:55:03;99179.94;;;15.06;100.00
50933;BME280;36921;49.006;9.292;2023-03-20T10:57:36;99166.72;;;15.71;100.00
50933;BME280;36921;49.006;9.292;2023-03-20T11:00:04;99175.88;;;15.77;100.00
50933;BME280;36921;49.006;9.292;2023-03-20T11:02:35;99179.59;;;16.31;100.00
50933;BME280;36921;49.006;9.292;2023-03-20T11:05:17;99178.03;;;16.96;100.00
50933;BME280;36921;49.006;9.292;2023-03-20T11:07:45;99168.84;;;17.72;100.00
50933;BME280;36921;49.006;9.292;2023-03-20T11:10:13;99168.59;;;18.72;92.43
50933;BME280;36921;49.006;9.292;2023-03-20T11:12:46;99152.53;;;18.47;83.66
50933;BME280;36921;49.006;9.292;2023-03-20T11:18:01;99146.75;;;19.27;79.77
50933;BME280;36921;49.006;9.292;2023-03-20T11:20:38;99169.31;;;20.34;77.53
50933;BME280;36921;49.006;9.292;2023-03-20T11:23:06;99162.84;;;19.97;72.65
50933;BME280;36921;49.006;9.292;2023-03-20T11:26:05;99168.06;;;19.03;78.50
50933;BME280;36921;49.006;9.292;2023-03-20T11:28:45;99167.03;;;19.43;77.70
50933;BME280;36921;49.006;9.292;2023-03-20T11:33:41;99163.53;;;20.90;70.12
50933;BME280;36921;49.006;9.292;2023-03-20T11:36:19;99148.63;;;21.61;64.98
50933;BME280;36921;49.006;9.292;2023-03-20T11:38:46;99144.84;;;22.50;62.06
50933;BME280;36921;49.006;9.292;2023-03-20T11:41:22;99147.16;;;21.91;60.84
50933;BME280;36921;49.006;9.292;2023-03-20T11:43:47;99150.22;;;21.09;61.67
50933;BME280;36921;49.006;9.292;2023-03-20T11:46:13;99126.59;;;20.49;64.08
50933;BME280;36921;49.006;9.292;2023-03-20T11:48:40;99137.38;;;20.06;64.95
50933;BME280;36921;49.006;9.292;2023-03-20T11:51:13;99147.31;;;19.08;66.58
50933;BME280;36921;49.006;9.292;2023-03-20T11:56:21;99140.06;;;18.85;70.74
50933;BME280;36921;49.006;9.292;2023-03-20T11:58:54;99158.97;;;18.52;71.51
50933;BME280;36921;49.006;9.292;2023-03-20T12:01:21;99152.28;;;18.48;74.27
50933;BME280;36921;49.006;9.292;2023-03-20T12:04:09;99149.97;;;18.11;76.77
50933;BME280;36921;49.006;9.292;2023-03-20T12:06:40;99129.47;;;18.43;77.91
50933;BME280;36921;49.006;9.292;2023-03-20T12:09:15;99155.81;;;18.60;73.62
50933;BME280;36921;49.006;9.292;2023-03-20T12:14:39;99152.69;;;17.83;74.86
50933;BME280;36921;49.006;9.292;2023-03-20T12:17:45;99112.16;;;17.56;72.94
50933;BME280;36921;49.006;9.292;2023-03-20T12:23:02;99127.06;;;20.68;64.54
50933;BME280;36921;49.006;9.292;2023-03-20T12:28:29;99137.59;;;20.49;59.25
50933;BME280;36921;49.006;9.292;2023-03-20T12:33:50;99111.22;;;19.99;60.73
50933;BME280;36921;49.006;9.292;2023-03-20T12:36:26;99111.09;;;19.66;61.98
50933;BME280;36921;49.006;9.292;2023-03-20T12:38:53;99120.47;;;18.93;62.14
50933;BME280;36921;49.006;9.292;2023-03-20T12:41:25;99109.22;;;19.11;61.57
50933;BME280;36921;49.006;9.292;2023-03-20T12:49:52;99116.72;;;19.38;63.50
50933;BME280;36921;49.006;9.292;2023-03-20T12:52:30;99119.31;;;19.88;61.80
50933;BME280;36921;49.006;9.292;2023-03-20T13:00:45;99099.41;;;17.50;65.18
50933;BME280;36921;49.006;9.292;2023-03-20T13:03:30;99082.34;;;17.19;66.64
50933;BME280;36921;49.006;9.292;2023-03-20T13:08:53;99095.78;;;17.33;70.14
50933;BME280;36921;49.006;9.292;2023-03-20T13:14:42;99084.06;;;18.01;70.34
50933;BME280;36921;49.006;9.292;2023-03-20T13:25:40;99066.19;;;17.29;69.26
50933;BME280;36921;49.006;9.292;2023-03-20T13:38:53;99073.28;;;17.30;73.74
50933;BME280;36921;49.006;9.292;2023-03-20T13:41:23;99056.78;;;17.25;72.47
50933;BME280;36921;49.006;9.292;2023-03-20T13:43:51;99059.00;;;18.55;66.86
50933;BME280;36921;49.006;9.292;2023-03-20T13:46:33;99042.94;;;19.36;61.52
50933;BME280;36921;49.006;9.292;2023-03-20T13:49:10;99051.38;;;19.13;60.15
50933;BME280;36921;49.006;9.292;2023-03-20T13:51:48;99029.06;;;19.26;60.27
50933;BME280;36921;49.006;9.292;2023-03-20T14:00:05;99041.69;;;18.88;64.37
50933;BME280;36921;49.006;9.292;2023-03-20T14:05:37;99052.09;;;17.90;63.54
50933;BME280;36921;49.006;9.292;2023-03-20T14:10:54;99040.94;;;17.39;66.33
50933;BME280;36921;49.006;9.292;2023-03-20T14:13:21;99042.88;;;17.67;66.23
50933;BME280;36921;49.006;9.292;2023-03-20T14:15:53;99031.09;;;17.26;65.89
50933;BME280;36921;49.006;9.292;2023-03-20T14:18:23;99029.34;;;16.97;68.45
50933;BME280;36921;49.006;9.292;2023-03-20T14:21:12;99040.06;;;16.86;73.74
50933;BME280;36921;49.006;9.292;2023-03-20T14:23:43;99035.50;;;16.69;76.14
50933;BME280;36921;49.006;9.292;2023-03-20T14:26:30;99033.97;;;16.49;75.16
50933;BME280;36921;49.006;9.292;2023-03-20T14:31:34;99030.44;;;16.72;77.26
50933;BME280;36921;49.006;9.292;2023-03-20T14:37:03;99033.41;;;17.06;75.20
50933;BME280;36921;49.006;9.292;2023-03-20T14:39:43;99029.38;;;17.08;71.45
50933;BME280;36921;49.006;9.292;2023-03-20T14:42:48;99030.09;;;16.80;68.91
50933;BME280;36921;49.006;9.292;2023-03-20T14:45:26;99018.66;;;16.72;70.83
50933;BME280;36921;49.006;9.292;2023-03-20T14:48:14;99009.75;;;17.00;67.50
50933;BME280;36921;49.006;9.292;2023-03-20T14:50:50;99015.47;;;16.86;67.47
50933;BME280;36921;49.006;9.292;2023-03-20T14:53:25;99005.47;;;17.04;67.98
50933;BME280;36921;49.006;9.292;2023-03-20T14:58:37;99014.97;;;16.90;68.08
50933;BME280;36921;49.006;9.292;2023-03-20T15:01:13;99008.31;;;16.38;69.62
50933;BME280;36921;49.006;9.292;2023-03-20T15:03:40;99014.78;;;16.02;70.65
50933;BME280;36921;49.006;9.292;2023-03-20T15:06:08;99016.97;;;16.24;75.09
50933;BME280;36921;49.006;9.292;2023-03-20T15:08:43;99005.94;;;16.30;77.02
50933;BME280;36921;49.006;9.292;2023-03-20T15:11:12;99006.56;;;16.56;78.99
50933;BME280;36921;49.006;9.292;2023-03-20T15:13:39;99012.47;;;16.53;80.22
50933;BME280;36921;49.006;9.292;2023-03-20T15:16:06;99005.69;;;16.55;80.16
50933;BME280;36921;49.006;9.292;2023-03-20T15:18:38;99008.19;;;16.45;82.22
50933;BME280;36921;49.006;9.292;2023-03-20T15:21:11;99019.81;;;16.29;83.85
50933;BME280;36921;49.006;9.292;2023-03-20T15:23:40;99008.84;;;16.05;86.79
50933;BME280;36921;49.006;9.292;2023-03-20T15:26:06;99005.22;;;15.81;88.43
50933;BME280;36921;49.006;9.292;2023-03-20T15:28:32;99005.69;;;15.78;86.63
50933;BME280;36921;49.006;9.292;2023-03-20T15:31:02;99008.19;;;15.31;88.94
50933;BME280;36921;49.006;9.292;2023-03-20T15:33:32;99015.72;;;14.99;95.88
50933;BME280;36921;49.006;9.292;2023-03-20T15:36:06;99002.50;;;14.59;98.13
50933;BME280;36921;49.006;9.292;2023-03-20T15:38:33;99015.38;;;14.45;100.00